Time;durP1;ratioP1;P1;durP2;ratioP2;P2;SDS_P1;SDS_P2;PMS_P1;PMS_P2;Temp;Humidity;BMP_temperature;BMP_pressure;BME280_temperature;BME280_humidity;BME280_pressure;Samples;Min_cycle;Max_cycle;Signal;HPM_P1;HPM_P2
2023/12/19 00:01:34;;;;;;;;;;;10.40;99.90;;;;;;5114122;28;20231;-80
2023/12/19 00:03:59;;;;;;;;;;;10.40;99.90;;;;;;5114707;28;19938;-79
2023/12/19 00:06:25;;;;;;;;;;;10.40;99.90;;;;;;5096071;28;19907;-80
2023/12/19 00:08:51;;;;;;;;;;;10.40;99.90;;;;;;5114482;28;19931;-79
2023/12/19 00:11:17;;;;;;;;;;;10.40;99.90;;;;;;5095019;28;20267;-78
2023/12/19 00:13:43;;;;;;;;;;;10.40;99.90;;;;;;5094512;28;19964;-74
2023/12/19 00:16:12;;;;;;;;;;;10.30;99.90;;;;;;5093043;28;20069;-79
2023/12/19 00:18:38;;;;;;;;;;;10.30;99.90;;;;;;5094209;28;19916;-78
2023/12/19 00:21:04;;;;;;;;;;;10.30;99.90;;;;;;5095281;28;19987;-79
2023/12/19 00:23:30;;;;;;;;;;;10.30;99.90;;;;;;5095531;28;20229;-78
2023/12/19 00:25:57;;;;;;;;;;;10.20;99.90;;;;;;5114085;28;19908;-78
2023/12/19 00:28:24;;;;;;;;;;;10.20;99.90;;;;;;5113841;28;19922;-78
2023/12/19 00:30:49;;;;;;;;;;;10.20;99.90;;;;;;5113709;28;19907;-78
2023/12/19 00:33:15;;;;;;;;;;;10.20;99.90;;;;;;5113625;28;20320;-76
2023/12/19 00:35:41;;;;;;;;;;;10.30;99.90;;;;;;5113816;28;19916;-76
2023/12/19 00:38:07;;;;;;;;;;;10.30;99.90;;;;;;5113581;28;20359;-75
2023/12/19 00:40:33;;;;;;;;;;;10.40;99.90;;;;;;5095128;28;19908;-77
2023/12/19 00:43:00;;;;;;;;;;;10.50;99.90;;;;;;5113616;28;19916;-78
2023/12/19 00:45:26;;;;;;;;;;;10.50;99.90;;;;;;5113845;28;19907;-79
2023/12/19 00:47:52;;;;;;;;;;;10.60;99.90;;;;;;5113504;28;19907;-78
2023/12/19 00:50:18;;;;;;;;;;;10.70;99.90;;;;;;5095342;28;20018;-79
2023/12/19 00:52:45;;;;;;;;;;;10.80;99.90;;;;;;5092988;28;19917;-78
2023/12/19 00:55:11;;;;;;;;;;;10.80;99.90;;;;;;5093184;28;20337;-77
2023/12/19 00:57:36;;;;;;;;;;;10.90;99.90;;;;;;5092791;28;19908;-79
2023/12/19 01:00:03;;;;;;;;;;;10.80;99.90;;;;;;5073017;28;19955;-79
2023/12/19 01:02:29;;;;;;;;;;;10.80;99.90;;;;;;5076849;28;20435;-79
2023/12/19 01:04:57;;;;;;;;;;;10.80;99.90;;;;;;5112908;28;19962;-79
2023/12/19 01:07:23;;;;;;;;;;;10.90;99.90;;;;;;5112769;28;19953;-80
2023/12/19 01:09:49;;;;;;;;;;;10.80;99.90;;;;;;5112517;28;19908;-79
2023/12/19 01:12:15;;;;;;;;;;;10.80;99.90;;;;;;5093954;28;19930;-80
2023/12/19 01:14:41;;;;;;;;;;;10.80;99.90;;;;;;5112201;28;19923;-80
2023/12/19 01:17:07;;;;;;;;;;;10.80;99.90;;;;;;5112258;28;19963;-80
2023/12/19 01:19:33;;;;;;;;;;;10.80;99.90;;;;;;5112521;28;19989;-78
2023/12/19 01:21:59;;;;;;;;;;;10.80;99.90;;;;;;5112117;28;20064;-79
2023/12/19 01:24:25;;;;;;;;;;;10.80;99.90;;;;;;5111862;28;19916;-80
2023/12/19 01:26:51;;;;;;;;;;;10.70;99.90;;;;;;5112244;28;20427;-76
2023/12/19 01:29:17;;;;;;;;;;;10.60;99.90;;;;;;5093171;28;20082;-78
2023/12/19 01:31:43;;;;;;;;;;;10.60;99.90;;;;;;5111727;28;20000;-79
2023/12/19 01:34:09;;;;;;;;;;;10.50;99.90;;;;;;5111742;28;19994;-79
2023/12/19 01:36:38;;;;;;;;;;;10.50;99.90;;;;;;5111922;28;20330;-78
2023/12/19 01:39:03;;;;;;;;;;;10.40;99.90;;;;;;5111594;28;19926;-79
2023/12/19 01:41:29;;;;;;;;;;;10.50;99.90;;;;;;5111900;28;19911;-79
2023/12/19 01:43:59;;;;;;;;;;;10.50;99.90;;;;;;5111082;28;19916;-78
2023/12/19 01:46:25;;;;;;;;;;;10.50;99.90;;;;;;5111762;28;20012;-79
2023/12/19 01:48:50;;;;;;;;;;;10.50;99.90;;;;;;5111758;28;20273;-77
2023/12/19 01:51:17;;;;;;;;;;;10.50;99.90;;;;;;5092928;28;20300;-73
2023/12/19 01:53:44;;;;;;;;;;;10.40;99.90;;;;;;5111528;28;19957;-79
2023/12/19 01:56:14;;;;;;;;;;;10.50;99.90;;;;;;5111381;28;19922;-78
2023/12/19 01:58:41;;;;;;;;;;;10.40;99.90;;;;;;5092430;28;19986;-78
2023/12/19 02:01:07;;;;;;;;;;;10.50;99.90;;;;;;5092888;28;19973;-79
2023/12/19 02:03:33;;;;;;;;;;;10.50;99.90;;;;;;5111317;28;19935;-79
2023/12/19 02:05:59;;;;;;;;;;;10.50;99.90;;;;;;5111590;28;19923;-78
2023/12/19 02:08:26;;;;;;;;;;;10.60;99.90;;;;;;5111276;28;20316;-79
2023/12/19 02:10:51;;;;;;;;;;;10.60;99.90;;;;;;5111117;28;19955;-76
2023/12/19 02:13:18;;;;;;;;;;;10.60;99.90;;;;;;5092854;28;20398;-79
2023/12/19 02:15:44;;;;;;;;;;;10.60;99.90;;;;;;5111484;28;19908;-79
2023/12/19 02:18:17;;;;;;;;;;;10.60;99.90;;;;;;5111666;28;19915;-79
2023/12/19 02:20:43;;;;;;;;;;;10.60;99.90;;;;;;5111853;28;19908;-79
2023/12/19 02:23:09;;;;;;;;;;;10.70;99.90;;;;;;5111195;28;20379;-79
2023/12/19 02:25:35;;;;;;;;;;;10.80;99.90;;;;;;5111501;28;20370;-78
2023/12/19 02:28:01;;;;;;;;;;;10.90;99.90;;;;;;5111099;28;19911;-78
2023/12/19 02:30:27;;;;;;;;;;;11.00;99.90;;;;;;5110805;28;19943;-78
2023/12/19 02:32:53;;;;;;;;;;;11.10;99.90;;;;;;5111091;28;20007;-78
2023/12/19 02:35:18;;;;;;;;;;;11.10;99.90;;;;;;5110914;28;19908;-76
2023/12/19 02:37:44;;;;;;;;;;;11.10;99.90;;;;;;5110846;28;20057;-79
2023/12/19 02:40:12;;;;;;;;;;;11.20;99.90;;;;;;5111140;28;19907;-79
2023/12/19 02:42:41;;;;;;;;;;;11.10;99.90;;;;;;5110505;28;20368;-78
2023/12/19 02:45:07;;;;;;;;;;;11.20;99.90;;;;;;5110513;28;19908;-78
2023/12/19 02:47:33;;;;;;;;;;;11.10;99.90;;;;;;5110906;28;19973;-79
2023/12/19 02:49:59;;;;;;;;;;;11.10;99.90;;;;;;5110863;28;19939;-79
2023/12/19 02:52:25;;;;;;;;;;;11.10;99.90;;;;;;5110942;28;19919;-80
2023/12/19 02:54:51;;;;;;;;;;;11.00;99.90;;;;;;5092277;28;19991;-79
2023/12/19 02:57:17;;;;;;;;;;;10.90;99.90;;;;;;5110917;28;19915;-79
2023/12/19 02:59:43;;;;;;;;;;;10.90;99.90;;;;;;5088509;28;19933;-79
2023/12/19 03:02:08;;;;;;;;;;;10.80;99.90;;;;;;5110996;28;20266;-79
2023/12/19 03:04:34;;;;;;;;;;;10.70;99.90;;;;;;5070304;28;19928;-79
2023/12/19 03:07:00;;;;;;;;;;;10.70;99.90;;;;;;5070380;28;19908;-79
2023/12/19 03:09:26;;;;;;;;;;;10.70;99.90;;;;;;5070110;28;20000;-79
2023/12/19 03:12:06;;;;;;;;;;;10.60;99.90;;;;;;5069982;28;20283;-78
2023/12/19 03:14:35;;;;;;;;;;;10.60;99.90;;;;;;5070013;28;19944;-78
2023/12/19 03:17:02;;;;;;;;;;;10.60;99.90;;;;;;5070154;28;19912;-78
2023/12/19 03:19:28;;;;;;;;;;;10.60;99.90;;;;;;5070005;28;19978;-79
2023/12/19 03:21:54;;;;;;;;;;;10.60;99.90;;;;;;5096824;28;20330;-80
2023/12/19 03:24:20;;;;;;;;;;;10.70;99.90;;;;;;5115046;28;20309;-79
2023/12/19 03:26:46;;;;;;;;;;;10.70;99.90;;;;;;5114755;28;19912;-80
2023/12/19 03:29:12;;;;;;;;;;;10.70;99.90;;;;;;5114253;28;19908;-80
2023/12/19 03:31:38;;;;;;;;;;;10.70;99.90;;;;;;5095885;28;19965;-80
2023/12/19 03:34:03;;;;;;;;;;;10.80;99.90;;;;;;5079677;28;19912;-79
2023/12/19 03:36:29;;;;;;;;;;;10.80;99.90;;;;;;5075200;28;19956;-79
2023/12/19 03:38:55;;;;;;;;;;;10.80;99.90;;;;;;5094029;28;20051;-79
2023/12/19 03:41:21;;;;;;;;;;;10.80;99.90;;;;;;5093732;28;19920;-78
2023/12/19 03:43:47;;;;;;;;;;;10.80;99.90;;;;;;5094557;28;19916;-79
2023/12/19 03:46:14;;;;;;;;;;;10.80;99.90;;;;;;5097023;28;19909;-79
2023/12/19 03:48:44;;;;;;;;;;;10.80;99.90;;;;;;5075338;28;20003;-79
2023/12/19 03:51:10;;;;;;;;;;;10.70;99.90;;;;;;5100888;28;19908;-79
2023/12/19 03:53:36;;;;;;;;;;;10.70;99.90;;;;;;5095182;28;19908;-77
2023/12/19 03:56:02;;;;;;;;;;;10.70;99.90;;;;;;5114127;28;19908;-79
2023/12/19 03:58:28;;;;;;;;;;;10.60;99.90;;;;;;5113955;28;20335;-79
2023/12/19 04:00:54;;;;;;;;;;;10.60;99.90;;;;;;5114474;28;19942;-79
2023/12/19 04:03:20;;;;;;;;;;;10.50;99.90;;;;;;5104173;28;19923;-80
2023/12/19 04:05:45;;;;;;;;;;;10.40;99.90;;;;;;5094105;28;20332;-80
2023/12/19 04:08:11;;;;;;;;;;;10.40;99.90;;;;;;5075068;28;19981;-79
2023/12/19 04:10:37;;;;;;;;;;;10.40;99.90;;;;;;5093791;28;19912;-79
2023/12/19 04:13:03;;;;;;;;;;;10.40;99.90;;;;;;5093738;28;20383;-79
2023/12/19 04:15:30;;;;;;;;;;;10.40;99.90;;;;;;5093443;28;19926;-80
2023/12/19 04:17:55;;;;;;;;;;;10.30;99.90;;;;;;5094006;28;19908;-79
2023/12/19 04:20:21;;;;;;;;;;;10.30;99.90;;;;;;5075548;28;19936;-79
2023/12/19 04:22:47;;;;;;;;;;;10.30;99.90;;;;;;5095370;28;19934;-80
2023/12/19 04:25:13;;;;;;;;;;;10.30;99.90;;;;;;5114292;28;19919;-80
2023/12/19 04:27:39;;;;;;;;;;;10.30;99.90;;;;;;5113941;28;20292;-80
2023/12/19 04:30:05;;;;;;;;;;;10.30;99.90;;;;;;5113829;28;19908;-81
2023/12/19 04:32:31;;;;;;;;;;;10.30;99.90;;;;;;5092215;28;19919;-80
2023/12/19 04:34:57;;;;;;;;;;;10.20;99.90;;;;;;5073830;28;19908;-80
2023/12/19 04:37:23;;;;;;;;;;;10.20;99.90;;;;;;5074743;28;19958;-80
2023/12/19 04:39:48;;;;;;;;;;;10.20;99.90;;;;;;5092830;28;20279;-79
2023/12/19 04:42:17;;;;;;;;;;;10.20;99.90;;;;;;5093316;28;19965;-80
2023/12/19 04:44:44;;;;;;;;;;;10.20;99.90;;;;;;5075015;28;19912;-80
2023/12/19 04:47:10;;;;;;;;;;;10.20;99.90;;;;;;5093718;28;19908;-80
2023/12/19 04:49:36;;;;;;;;;;;10.10;99.90;;;;;;5093924;28;20056;-79
2023/12/19 04:52:03;;;;;;;;;;;10.00;99.90;;;;;;5109016;28;19947;-77
2023/12/19 04:54:29;;;;;;;;;;;9.90;99.90;;;;;;5115814;28;19908;-79
2023/12/19 04:56:54;;;;;;;;;;;9.90;99.90;;;;;;5115200;28;20352;-80
2023/12/19 04:59:20;;;;;;;;;;;9.80;99.90;;;;;;5114820;28;19923;-79
2023/12/19 05:01:46;;;;;;;;;;;9.80;99.90;;;;;;5097527;28;19916;-79
2023/12/19 05:04:12;;;;;;;;;;;9.80;99.90;;;;;;5079847;28;20007;-79
2023/12/19 05:06:38;;;;;;;;;;;9.80;99.90;;;;;;5095249;28;19912;-80
2023/12/19 05:09:04;;;;;;;;;;;9.80;99.90;;;;;;5076727;28;19912;-80
2023/12/19 05:11:30;;;;;;;;;;;9.70;99.90;;;;;;5076413;28;19908;-80
2023/12/19 05:13:55;;;;;;;;;;;9.70;99.90;;;;;;5076181;28;20052;-79
2023/12/19 05:16:21;;;;;;;;;;;9.70;99.90;;;;;;5076289;28;19916;-78
2023/12/19 05:18:47;;;;;;;;;;;9.80;99.90;;;;;;5076972;28;19963;-80
2023/12/19 05:21:13;;;;;;;;;;;9.70;99.90;;;;;;5102831;28;19908;-79
2023/12/19 05:23:40;;;;;;;;;;;9.70;99.90;;;;;;5115496;28;20348;-80
2023/12/19 05:26:06;;;;;;;;;;;9.70;99.90;;;;;;5097218;28;19908;-80
2023/12/19 05:28:34;;;;;;;;;;;9.70;99.90;;;;;;5115430;28;20422;-76
2023/12/19 05:31:00;;;;;;;;;;;9.60;99.90;;;;;;5097154;28;19907;-79
2023/12/19 05:33:26;;;;;;;;;;;9.50;99.90;;;;;;5104238;28;20375;-79
2023/12/19 05:35:53;;;;;;;;;;;9.40;99.90;;;;;;5076610;28;19919;-77
2023/12/19 05:38:19;;;;;;;;;;;9.40;99.90;;;;;;5091417;28;19920;-79
2023/12/19 05:40:45;;;;;;;;;;;9.40;99.90;;;;;;5084107;28;19912;-79
2023/12/19 05:43:11;;;;;;;;;;;9.30;99.90;;;;;;5072121;28;19920;-78
2023/12/19 05:45:37;;;;;;;;;;;9.30;99.90;;;;;;5093279;28;19908;-74
2023/12/19 05:48:03;;;;;;;;;;;9.20;99.90;;;;;;5093090;28;19912;-79
2023/12/19 05:50:29;;;;;;;;;;;9.20;99.90;;;;;;5076892;28;19949;-78
2023/12/19 05:52:55;;;;;;;;;;;9.10;99.90;;;;;;5096043;28;19920;-76
2023/12/19 05:55:21;;;;;;;;;;;9.10;99.90;;;;;;5114430;28;19958;-78
2023/12/19 05:57:47;;;;;;;;;;;9.10;99.90;;;;;;5089847;28;19919;-79
2023/12/19 06:00:13;;;;;;;;;;;9.10;99.90;;;;;;5108920;28;19924;-79
2023/12/19 06:02:39;;;;;;;;;;;9.10;99.90;;;;;;5091590;28;19956;-78
2023/12/19 06:05:09;;;;;;;;;;;9.10;99.90;;;;;;5113763;28;20279;-78
2023/12/19 06:07:36;;;;;;;;;;;9.10;99.90;;;;;;5096291;28;19995;-78
2023/12/19 06:10:02;;;;;;;;;;;9.10;99.90;;;;;;5095519;28;19955;-79
2023/12/19 06:12:29;;;;;;;;;;;9.20;99.90;;;;;;5095768;28;19908;-79
2023/12/19 06:14:54;;;;;;;;;;;9.40;99.90;;;;;;5095760;28;20252;-74
2023/12/19 06:17:20;;;;;;;;;;;9.40;99.90;;;;;;5113745;28;19908;-80
2023/12/19 06:19:46;;;;;;;;;;;9.40;99.90;;;;;;5114398;28;19988;-79
2023/12/19 06:22:12;;;;;;;;;;;9.40;99.90;;;;;;5113730;28;19912;-79
2023/12/19 06:24:38;;;;;;;;;;;9.50;99.90;;;;;;5114032;28;19939;-71
2023/12/19 06:27:04;;;;;;;;;;;9.50;99.90;;;;;;5114111;28;19912;-70
2023/12/19 06:29:30;;;;;;;;;;;9.50;99.90;;;;;;5113011;28;20256;-72
2023/12/19 06:31:55;;;;;;;;;;;9.50;99.90;;;;;;5113342;28;19919;-78
2023/12/19 06:34:21;;;;;;;;;;;9.60;99.90;;;;;;5113281;28;20015;-76
2023/12/19 06:36:47;;;;;;;;;;;9.70;99.90;;;;;;5113140;28;20272;-85
2023/12/19 06:39:13;;;;;;;;;;;9.70;99.90;;;;;;5095111;28;19919;-83
2023/12/19 06:41:39;;;;;;;;;;;9.90;99.90;;;;;;5113499;28;19954;-73
2023/12/19 06:44:04;;;;;;;;;;;10.20;99.90;;;;;;5112684;28;20053;-74
2023/12/19 06:46:30;;;;;;;;;;;10.60;99.90;;;;;;5112812;28;19977;-74
2023/12/19 06:48:56;;;;;;;;;;;10.90;99.90;;;;;;5112892;28;19908;-75
2023/12/19 06:51:25;;;;;;;;;;;11.20;99.90;;;;;;5112284;28;19919;-81
2023/12/19 06:53:53;;;;;;;;;;;11.50;99.90;;;;;;5093223;28;19908;-79
2023/12/19 06:56:18;;;;;;;;;;;11.70;99.90;;;;;;5093249;28;20316;-79
2023/12/19 06:58:44;;;;;;;;;;;12.00;99.90;;;;;;5114965;28;19941;-79
2023/12/19 07:01:10;;;;;;;;;;;12.20;99.90;;;;;;5116305;28;19927;-79
2023/12/19 07:03:36;;;;;;;;;;;12.40;99.90;;;;;;5116201;28;19934;-80
2023/12/19 07:06:02;;;;;;;;;;;12.50;99.90;;;;;;5116584;28;19912;-80
2023/12/19 07:08:32;;;;;;;;;;;12.50;99.90;;;;;;5116780;28;20010;-79
2023/12/19 07:10:57;;;;;;;;;;;12.60;99.90;;;;;;5116059;28;19973;-77
2023/12/19 07:13:23;;;;;;;;;;;13.00;99.90;;;;;;5115092;28;19936;-79
2023/12/19 07:15:49;;;;;;;;;;;13.40;99.90;;;;;;5115245;28;19908;-79
2023/12/19 07:18:15;;;;;;;;;;;13.50;99.90;;;;;;5116875;28;19961;-79
2023/12/19 07:20:41;;;;;;;;;;;13.70;99.90;;;;;;5117071;28;19912;-79
2023/12/19 07:23:07;;;;;;;;;;;13.60;99.90;;;;;;5116262;28;19922;-78
2023/12/19 07:25:33;;;;;;;;;;;13.90;99.90;;;;;;5115933;28;19931;-75
2023/12/19 07:27:59;;;;;;;;;;;14.20;99.90;;;;;;5112037;28;20273;-75
2023/12/19 07:30:25;;;;;;;;;;;14.40;99.90;;;;;;5115881;28;19999;-74
2023/12/19 07:32:51;;;;;;;;;;;14.50;99.90;;;;;;5104132;28;19911;-74
2023/12/19 07:35:19;;;;;;;;;;;14.80;99.90;;;;;;5115790;28;20302;-70
2023/12/19 07:37:45;;;;;;;;;;;14.80;99.90;;;;;;5115580;28;19978;-76
2023/12/19 07:40:12;;;;;;;;;;;14.90;99.90;;;;;;5115970;28;19994;-75
2023/12/19 07:42:39;;;;;;;;;;;14.80;99.90;;;;;;5115946;28;20328;-75
2023/12/19 07:45:06;;;;;;;;;;;14.60;99.90;;;;;;5115697;28;20297;-76
2023/12/19 07:47:32;;;;;;;;;;;14.20;99.90;;;;;;5115865;28;19912;-74
2023/12/19 07:49:58;;;;;;;;;;;13.80;99.90;;;;;;5116240;28;19907;-73
2023/12/19 07:52:24;;;;;;;;;;;13.70;99.90;;;;;;5115852;28;19911;-76
2023/12/19 07:54:50;;;;;;;;;;;13.60;99.90;;;;;;5116111;28;19907;-76
2023/12/19 07:57:16;;;;;;;;;;;13.20;99.90;;;;;;5115834;28;19984;-76
2023/12/19 07:59:41;;;;;;;;;;;13.10;99.90;;;;;;5115350;28;19919;-76
2023/12/19 08:02:08;;;;;;;;;;;13.10;99.90;;;;;;5115462;28;19912;-76
2023/12/19 08:04:34;;;;;;;;;;;13.20;99.90;;;;;;5115468;28;20379;-74
2023/12/19 08:07:00;;;;;;;;;;;13.20;99.90;;;;;;5115902;28;19908;-75
2023/12/19 08:09:28;;;;;;;;;;;13.00;99.90;;;;;;5115270;28;19947;-75
2023/12/19 08:11:56;;;;;;;;;;;12.80;99.90;;;;;;5097002;28;19915;-74
2023/12/19 08:14:24;;;;;;;;;;;13.00;99.90;;;;;;5115152;28;20081;-74
2023/12/19 08:16:50;;;;;;;;;;;13.00;99.90;;;;;;5116189;28;19998;-75
2023/12/19 08:19:16;;;;;;;;;;;13.10;99.90;;;;;;5115644;28;20016;-74
2023/12/19 08:21:51;;;;;;;;;;;13.20;99.90;;;;;;5115259;28;19931;-70
2023/12/19 08:24:17;;;;;;;;;;;13.20;99.90;;;;;;5115287;28;19922;-75
2023/12/19 08:26:49;;;;;;;;;;;13.10;99.90;;;;;;5115696;28;19908;-73
2023/12/19 08:29:16;;;;;;;;;;;13.20;99.90;;;;;;5115376;28;19961;-74
2023/12/19 08:31:44;;;;;;;;;;;13.50;99.90;;;;;;5115550;28;19919;-74
2023/12/19 08:34:10;;;;;;;;;;;13.50;99.90;;;;;;5115088;28;20321;-75
2023/12/19 08:36:36;;;;;;;;;;;13.70;99.90;;;;;;5096790;28;20360;-75
2023/12/19 08:39:02;;;;;;;;;;;14.00;99.90;;;;;;5096944;28;20014;-74
2023/12/19 08:41:28;;;;;;;;;;;14.10;99.90;;;;;;5096646;28;19915;-74
2023/12/19 08:43:53;;;;;;;;;;;14.30;99.90;;;;;;5114776;28;19995;-74
2023/12/19 08:46:19;;;;;;;;;;;14.50;99.90;;;;;;5114587;28;19946;-72
2023/12/19 08:48:49;;;;;;;;;;;14.50;99.90;;;;;;5114713;28;19907;-75
2023/12/19 08:51:17;;;;;;;;;;;14.50;99.90;;;;;;5114088;28;19908;-75
2023/12/19 08:53:43;;;;;;;;;;;14.30;99.90;;;;;;5114681;28;19965;-76
2023/12/19 08:56:09;;;;;;;;;;;14.20;99.90;;;;;;5113515;28;19912;-75
2023/12/19 08:58:35;;;;;;;;;;;14.00;99.90;;;;;;5113067;28;19960;-75
2023/12/19 09:01:01;;;;;;;;;;;13.90;99.90;;;;;;5113203;28;19920;-77
2023/12/19 09:03:27;;;;;;;;;;;13.80;99.90;;;;;;5113119;28;19916;-80
2023/12/19 09:05:53;;;;;;;;;;;13.70;99.90;;;;;;5113586;28;19912;-78
2023/12/19 09:08:19;;;;;;;;;;;13.80;99.90;;;;;;5094705;28;19908;-78
2023/12/19 09:10:46;;;;;;;;;;;13.80;99.90;;;;;;5113609;28;20352;-78
2023/12/19 09:13:11;;;;;;;;;;;13.70;99.90;;;;;;5112876;28;19908;-77
2023/12/19 09:15:37;;;;;;;;;;;13.70;99.90;;;;;;5113057;28;19915;-77
2023/12/19 09:18:03;;;;;;;;;;;13.60;99.90;;;;;;5113959;28;19915;-74
2023/12/19 09:20:30;;;;;;;;;;;13.60;99.90;;;;;;5112366;28;19951;-77
2023/12/19 09:22:55;;;;;;;;;;;13.50;99.90;;;;;;5113275;28;19911;-75
2023/12/19 09:25:21;;;;;;;;;;;13.50;99.90;;;;;;5113265;28;19995;-76
2023/12/19 09:27:48;;;;;;;;;;;13.50;99.90;;;;;;5113577;28;20312;-77
2023/12/19 09:30:15;;;;;;;;;;;13.50;99.90;;;;;;5113318;28;19967;-78
2023/12/19 09:32:42;;;;;;;;;;;13.50;99.90;;;;;;5113203;28;19994;-79
2023/12/19 09:35:08;;;;;;;;;;;13.60;99.90;;;;;;5113141;28;19907;-78
2023/12/19 09:37:34;;;;;;;;;;;13.70;99.90;;;;;;5113312;28;19915;-76
2023/12/19 09:40:00;;;;;;;;;;;13.80;99.90;;;;;;5113132;28;19908;-80
2023/12/19 09:42:27;;;;;;;;;;;13.90;99.90;;;;;;5113035;28;19912;-77
2023/12/19 09:44:53;;;;;;;;;;;13.80;99.90;;;;;;5112996;28;20053;-77
2023/12/19 09:47:23;;;;;;;;;;;13.80;99.90;;;;;;5094662;28;19955;-78
2023/12/19 09:49:57;;;;;;;;;;;13.70;99.90;;;;;;5094630;28;20575;-77
2023/12/19 09:52:24;;;;;;;;;;;13.80;99.90;;;;;;5112606;28;20010;-78
2023/12/19 09:54:51;;;;;;;;;;;13.80;99.90;;;;;;5095083;28;19908;-77
2023/12/19 09:57:17;;;;;;;;;;;14.00;99.90;;;;;;5095554;28;19953;-78
2023/12/19 09:59:44;;;;;;;;;;;14.10;99.90;;;;;;5113236;28;20037;-77
2023/12/19 10:02:10;;;;;;;;;;;14.20;99.90;;;;;;5113176;28;19998;-76
2023/12/19 10:04:36;;;;;;;;;;;14.20;99.90;;;;;;5112964;28;20344;-77
2023/12/19 10:07:02;;;;;;;;;;;14.30;99.90;;;;;;5112975;28;20387;-77
2023/12/19 10:09:28;;;;;;;;;;;14.40;99.90;;;;;;5094814;28;20259;-77
2023/12/19 10:12:02;;;;;;;;;;;14.40;99.90;;;;;;5113097;28;19964;-76
2023/12/19 10:14:28;;;;;;;;;;;14.60;99.90;;;;;;5113221;28;19907;-75
2023/12/19 10:16:54;;;;;;;;;;;14.60;99.90;;;;;;5112956;28;19920;-77
2023/12/19 10:19:26;;;;;;;;;;;14.60;99.90;;;;;;5113179;28;19912;-77
2023/12/19 10:22:19;;;;;;;;;;;14.50;99.90;;;;;;5112905;28;20010;-76
2023/12/19 10:24:46;;;;;;;;;;;14.60;99.90;;;;;;5108270;28;19974;-74
2023/12/19 10:27:12;;;;;;;;;;;14.80;99.90;;;;;;5112921;28;20007;-75
2023/12/19 10:29:38;;;;;;;;;;;14.90;99.90;;;;;;5112890;28;20024;-75
2023/12/19 10:32:17;;;;;;;;;;;14.90;99.90;;;;;;5112822;28;19912;-75
2023/12/19 10:34:46;;;;;;;;;;;15.00;99.90;;;;;;5092936;28;19919;-74
2023/12/19 10:37:13;;;;;;;;;;;15.10;99.90;;;;;;5092843;28;19908;-76
2023/12/19 10:39:58;;;;;;;;;;;15.10;99.90;;;;;;5092159;28;19973;-75
2023/12/19 10:42:24;;;;;;;;;;;15.20;99.90;;;;;;5072686;28;19927;-74
2023/12/19 10:44:50;;;;;;;;;;;15.20;99.90;;;;;;5092214;28;19912;-75
2023/12/19 10:47:16;;;;;;;;;;;15.00;99.90;;;;;;5092325;28;19961;-76
2023/12/19 10:49:42;;;;;;;;;;;14.90;99.90;;;;;;5092150;28;19928;-75
2023/12/19 10:52:09;;;;;;;;;;;15.10;99.90;;;;;;5107827;28;19908;-75
2023/12/19 10:54:37;;;;;;;;;;;15.00;99.90;;;;;;5112663;28;19949;-74
2023/12/19 10:57:19;;;;;;;;;;;15.10;99.90;;;;;;5094365;28;19912;-72
2023/12/19 10:59:45;;;;;;;;;;;15.30;99.90;;;;;;5077063;28;19928;-75
2023/12/19 11:02:25;;;;;;;;;;;15.50;99.90;;;;;;5112705;28;19965;-76
2023/12/19 11:04:58;;;;;;;;;;;15.40;99.90;;;;;;5093991;28;19915;-76
2023/12/19 11:07:26;;;;;;;;;;;15.20;99.90;;;;;;5112933;28;19915;-76
2023/12/19 11:09:57;;;;;;;;;;;15.20;99.90;;;;;;5112255;28;20017;-76
2023/12/19 11:12:23;;;;;;;;;;;15.30;99.90;;;;;;5093717;28;19911;-74
2023/12/19 11:14:49;;;;;;;;;;;15.40;99.90;;;;;;5093565;28;19919;-75
2023/12/19 11:17:17;;;;;;;;;;;15.40;99.90;;;;;;5112714;28;19908;-71
2023/12/19 11:19:44;;;;;;;;;;;15.40;99.90;;;;;;5112368;28;20409;-75
2023/12/19 11:22:10;;;;;;;;;;;15.40;99.90;;;;;;5112440;28;20003;-74
2023/12/19 11:24:54;;;;;;;;;;;15.30;99.90;;;;;;5111442;28;20003;-75
2023/12/19 11:27:31;;;;;;;;;;;15.40;99.90;;;;;;5073827;28;19912;-76
2023/12/19 11:29:56;;;;;;;;;;;15.40;99.90;;;;;;5105778;28;20284;-75
2023/12/19 11:32:28;;;;;;;;;;;15.50;99.90;;;;;;5110320;28;19912;-76
2023/12/19 11:35:10;;;;;;;;;;;15.60;99.90;;;;;;5092028;28;19908;-75
2023/12/19 11:37:36;;;;;;;;;;;15.60;99.90;;;;;;5091845;28;19908;-76
2023/12/19 11:40:16;;;;;;;;;;;15.80;99.90;;;;;;5092278;28;19931;-75
2023/12/19 11:42:42;;;;;;;;;;;15.80;99.90;;;;;;5092259;28;19952;-76
2023/12/19 11:45:18;;;;;;;;;;;15.90;99.90;;;;;;5095590;28;19954;-75
2023/12/19 11:47:44;;;;;;;;;;;16.00;99.90;;;;;;5104474;28;20126;-76
2023/12/19 11:50:10;;;;;;;;;;;16.30;99.90;;;;;;5108228;28;19926;-76
2023/12/19 11:52:36;;;;;;;;;;;16.20;99.90;;;;;;5116313;28;19908;-77
2023/12/19 11:55:03;;;;;;;;;;;16.20;99.90;;;;;;5115704;28;19908;-76
2023/12/19 11:57:29;;;;;;;;;;;16.40;99.90;;;;;;5115606;28;19912;-76
2023/12/19 11:59:55;;;;;;;;;;;16.50;99.90;;;;;;5115398;28;19923;-74
2023/12/19 12:02:34;;;;;;;;;;;16.80;99.90;;;;;;5095541;28;19907;-76
2023/12/19 12:05:04;;;;;;;;;;;16.90;99.90;;;;;;5095085;28;19939;-75
2023/12/19 12:07:30;;;;;;;;;;;16.90;99.90;;;;;;5095007;28;19908;-76
2023/12/19 12:10:00;;;;;;;;;;;17.00;99.90;;;;;;5095193;28;19951;-75
2023/12/19 12:12:36;;;;;;;;;;;17.00;99.90;;;;;;5095220;28;20003;-76
2023/12/19 12:15:16;;;;;;;;;;;17.20;99.90;;;;;;5094766;28;19915;-77
2023/12/19 12:17:44;;;;;;;;;;;17.30;99.90;;;;;;5095486;28;19908;-76
2023/12/19 12:20:10;;;;;;;;;;;17.00;99.90;;;;;;5095192;28;19909;-77
2023/12/19 12:22:36;;;;;;;;;;;16.90;99.90;;;;;;5114303;28;19914;-77
2023/12/19 12:25:02;;;;;;;;;;;17.10;99.90;;;;;;5097092;28;20014;-76
2023/12/19 12:27:28;;;;;;;;;;;17.00;99.90;;;;;;5114895;28;20331;-76
2023/12/19 12:29:57;;;;;;;;;;;17.00;99.90;;;;;;5114156;28;19908;-77
2023/12/19 12:32:26;;;;;;;;;;;17.10;99.90;;;;;;5095889;28;19911;-76
2023/12/19 12:34:52;;;;;;;;;;;17.30;99.90;;;;;;5114869;28;19924;-77
2023/12/19 12:37:18;;;;;;;;;;;17.30;99.90;;;;;;5096234;28;20007;-76
2023/12/19 12:39:45;;;;;;;;;;;17.10;99.90;;;;;;5095976;28;19959;-76
2023/12/19 12:42:13;;;;;;;;;;;17.00;99.90;;;;;;5114312;28;19908;-76
2023/12/19 12:44:40;;;;;;;;;;;17.30;99.90;;;;;;5095940;28;20420;-77
2023/12/19 12:47:08;;;;;;;;;;;17.60;99.90;;;;;;5114225;28;19961;-76
2023/12/19 12:49:35;;;;;;;;;;;17.50;99.90;;;;;;5113756;28;19908;-76
2023/12/19 12:52:01;;;;;;;;;;;17.50;99.90;;;;;;5114598;28;19908;-77
2023/12/19 12:54:28;;;;;;;;;;;17.30;99.90;;;;;;5114293;28;19914;-77
2023/12/19 12:56:54;;;;;;;;;;;17.40;99.90;;;;;;5114502;28;20007;-77
2023/12/19 12:59:22;;;;;;;;;;;17.20;99.90;;;;;;5114352;28;19920;-79
2023/12/19 13:01:49;;;;;;;;;;;17.20;99.90;;;;;;5114604;28;19930;-76
2023/12/19 13:04:17;;;;;;;;;;;17.20;99.90;;;;;;5114873;28;20247;-76
2023/12/19 13:06:43;;;;;;;;;;;17.40;99.90;;;;;;5114923;28;19914;-75
2023/12/19 13:09:13;;;;;;;;;;;17.40;99.90;;;;;;5114917;28;19943;-76
2023/12/19 13:11:40;;;;;;;;;;;17.20;99.90;;;;;;5115687;28;20225;-77
2023/12/19 13:14:06;;;;;;;;;;;17.10;99.90;;;;;;5115165;28;19915;-78
2023/12/19 13:16:32;;;;;;;;;;;17.30;99.90;;;;;;5114953;28;20002;-77
2023/12/19 13:18:58;;;;;;;;;;;17.50;99.90;;;;;;5115222;28;19908;-75
2023/12/19 13:21:24;;;;;;;;;;;17.40;99.90;;;;;;5114825;28;19961;-76
2023/12/19 13:23:52;;;;;;;;;;;17.40;99.90;;;;;;5114705;28;19923;-76
2023/12/19 13:26:18;;;;;;;;;;;17.30;99.90;;;;;;5114643;28;19926;-77
2023/12/19 13:28:44;;;;;;;;;;;17.50;99.90;;;;;;5114564;28;19976;-76
2023/12/19 13:31:09;;;;;;;;;;;17.60;99.90;;;;;;5096193;28;20010;-77
2023/12/19 13:33:37;;;;;;;;;;;17.30;99.90;;;;;;5114457;28;19908;-77
2023/12/19 13:36:04;;;;;;;;;;;17.20;99.90;;;;;;5114807;28;20428;-73
2023/12/19 13:38:30;;;;;;;;;;;17.40;99.90;;;;;;5114531;28;19907;-76
2023/12/19 13:40:57;;;;;;;;;;;17.20;99.90;;;;;;5115027;28;20346;-76
2023/12/19 13:43:23;;;;;;;;;;;17.40;99.90;;;;;;5096004;28;19916;-78
2023/12/19 13:45:49;;;;;;;;;;;17.70;99.90;;;;;;5095829;28;20382;-76
2023/12/19 13:48:16;;;;;;;;;;;17.50;99.90;;;;;;5114395;28;19908;-77
2023/12/19 13:50:42;;;;;;;;;;;17.40;99.90;;;;;;5114484;28;19969;-77
2023/12/19 13:53:08;;;;;;;;;;;17.30;99.90;;;;;;5114393;28;19907;-78
2023/12/19 13:55:34;;;;;;;;;;;16.90;99.90;;;;;;5095530;28;19915;-77
2023/12/19 13:58:01;;;;;;;;;;;16.70;99.90;;;;;;5114024;28;19912;-78
2023/12/19 14:00:26;;;;;;;;;;;16.50;99.90;;;;;;5113517;28;20295;-77
2023/12/19 14:02:52;;;;;;;;;;;16.40;99.90;;;;;;5113095;28;19919;-77
2023/12/19 14:05:18;;;;;;;;;;;16.30;99.90;;;;;;5094933;28;19907;-77
2023/12/19 14:07:45;;;;;;;;;;;16.40;99.90;;;;;;5112946;28;19969;-76
2023/12/19 14:10:12;;;;;;;;;;;16.30;99.90;;;;;;5113361;28;19908;-77
2023/12/19 14:12:38;;;;;;;;;;;16.30;99.90;;;;;;5113293;28;19915;-78
2023/12/19 14:15:05;;;;;;;;;;;16.30;99.90;;;;;;5112664;28;19912;-75
2023/12/19 14:17:31;;;;;;;;;;;16.20;99.90;;;;;;5112563;28;19908;-74